Decoded Metar for LDSP (SPLIT in CROATIA) (IATA:SPU) | Meteo·Mobile Aviation Weather
aviador You're here:

LDSP Decoded Metar

SPLIT in CROATIA
Report Time2019-03-23 08:00:00
UTC Time2019-03-23 08:15:52
Flight Rules vfr VFR
WindVRB at 02 kt
Visibility9999 m
Phenomena:N/A
Clouds:N/A
Expected CloudBase > 6,800 ft AGL from Temp-Dew spread
CeilingNone
Temp18°C (ISA +3)
Dew Point01°C (32% RH)
AAT15.5°C
QNH1023 hPa
Density Alt194 ft
Elevation69 ft
Report Wrong Elevation
Raw Report
LDSP 230800Z VRB02KT CAVOK 18/01 Q1023 NOSIG=

Extra information for LDSP:More info

Metar Taf Metar & Taf Last 4 Metars F.Rules Stats Wind Profile Meteogram Temp Stats Airport Information Weather charts Add Link Nearby VenuesMetar ALERT Operation Metar Decoded Social comments